Time;durP1;ratioP1;P1;durP2;ratioP2;P2;SDS_P1;SDS_P2;PMS_P1;PMS_P2;Temp;Humidity;BMP_temperature;BMP_pressure;BME280_temperature;BME280_humidity;BME280_pressure;Samples;Min_cycle;Max_cycle;Signal;HPM_P1;HPM_P2
2021/05/20 00:00:10;;;;;;;3.15;0.88;;;12.50;86.40;;;;;;5081867;28;20101;-75
2021/05/20 00:02:38;;;;;;;3.72;1.00;;;12.40;86.80;;;;;;5083177;28;20052;-73
2021/05/20 00:05:08;;;;;;;1.88;1.20;;;12.30;87.60;;;;;;5078717;28;20147;-75
2021/05/20 00:07:35;;;;;;;3.40;0.93;;;12.20;88.20;;;;;;5079093;28;20048;-72
2021/05/20 00:10:04;;;;;;;1.42;1.02;;;12.10;89.20;;;;;;5081992;28;20399;-75
2021/05/20 00:12:31;;;;;;;3.00;1.13;;;12.10;89.90;;;;;;5083428;28;20110;-74
2021/05/20 00:14:58;;;;;;;2.67;1.10;;;12.10;90.20;;;;;;5080147;28;20075;-75
2021/05/20 00:17:25;;;;;;;2.65;1.20;;;12.20;90.00;;;;;;5075483;28;20044;-75
2021/05/20 00:19:52;;;;;;;3.03;1.23;;;12.20;90.10;;;;;;5080247;28;20040;-76
2021/05/20 00:22:19;;;;;;;4.47;1.50;;;12.20;90.20;;;;;;5071957;28;20049;-74
2021/05/20 00:24:46;;;;;;;4.63;1.73;;;12.30;90.00;;;;;;5081258;28;20049;-75
2021/05/20 00:27:13;;;;;;;3.58;2.10;;;12.10;90.20;;;;;;5079398;28;20071;-75
2021/05/20 00:29:40;;;;;;;4.00;2.35;;;12.10;90.60;;;;;;5079204;28;20102;-74
2021/05/20 00:32:07;;;;;;;3.33;1.67;;;12.00;90.90;;;;;;5085720;28;20040;-75
2021/05/20 00:34:34;;;;;;;5.65;2.53;;;12.10;91.20;;;;;;5076994;28;20116;-74
2021/05/20 00:37:01;;;;;;;10.98;2.47;;;12.10;91.10;;;;;;5076005;28;20079;-75
2021/05/20 00:39:27;;;;;;;5.13;2.28;;;12.10;91.40;;;;;;5082374;28;20094;-75
2021/05/20 00:41:54;;;;;;;6.65;2.05;;;12.00;91.40;;;;;;5083356;28;20098;-75
2021/05/20 00:44:21;;;;;;;8.05;2.08;;;12.00;91.90;;;;;;5081088;28;20076;-74
2021/05/20 00:46:48;;;;;;;6.75;2.00;;;12.10;91.80;;;;;;5078125;28;20091;-75
2021/05/20 00:49:15;;;;;;;4.20;1.85;;;12.10;91.80;;;;;;5077021;28;20379;-75
2021/05/20 00:51:45;;;;;;;2.40;1.75;;;12.10;91.80;;;;;;5079237;28;20450;-76
2021/05/20 00:54:12;;;;;;;5.07;1.95;;;12.00;91.90;;;;;;5079449;28;20048;-74
2021/05/20 00:56:41;;;;;;;3.33;1.60;;;12.00;92.10;;;;;;5078728;28;20090;-75
2021/05/20 00:59:09;;;;;;;3.47;1.77;;;12.00;92.40;;;;;;5084816;28;20448;-74
2021/05/20 01:01:36;;;;;;;2.92;1.88;;;12.00;92.40;;;;;;5076198;28;20056;-76
2021/05/20 01:04:03;;;;;;;6.03;2.10;;;12.00;92.50;;;;;;5094397;28;20552;-75
2021/05/20 01:06:30;;;;;;;4.60;2.22;;;11.90;92.70;;;;;;5085191;28;20040;-74
2021/05/20 01:08:57;;;;;;;4.45;2.17;;;12.00;92.70;;;;;;5076871;28;20106;-75
2021/05/20 01:11:24;;;;;;;3.47;1.92;;;12.10;92.90;;;;;;5091135;28;20075;-75
2021/05/20 01:13:51;;;;;;;2.58;1.55;;;12.00;93.00;;;;;;5082476;28;20119;-75
2021/05/20 01:16:18;;;;;;;3.13;2.05;;;12.00;93.20;;;;;;5084154;28;20040;-75
2021/05/20 01:18:44;;;;;;;4.13;1.80;;;11.90;93.40;;;;;;5080389;28;20587;-73
2021/05/20 01:21:11;;;;;;;3.72;1.40;;;12.10;93.40;;;;;;5082269;28;20071;-75
2021/05/20 01:23:38;;;;;;;6.50;1.35;;;12.00;93.20;;;;;;5076896;28;20041;-75
2021/05/20 01:26:05;;;;;;;4.90;1.70;;;12.10;93.30;;;;;;5085697;28;20090;-75
2021/05/20 01:28:34;;;;;;;2.42;1.58;;;12.10;93.10;;;;;;5086405;28;20503;-75
2021/05/20 01:31:03;;;;;;;3.90;1.42;;;12.00;93.20;;;;;;5086231;28;20113;-74
2021/05/20 01:33:30;;;;;;;3.78;1.75;;;12.00;93.60;;;;;;5086458;28;20502;-75
2021/05/20 01:35:57;;;;;;;5.75;1.73;;;12.10;93.70;;;;;;5088039;28;20064;-75
2021/05/20 01:40:57;;;;;;;5.95;2.03;;;12.00;94.30;;;;;;5085617;28;20067;-75
2021/05/20 01:43:24;;;;;;;6.55;2.72;;;12.10;94.80;;;;;;5078127;28;20079;-74
2021/05/20 01:45:58;;;;;;;7.18;4.22;;;12.00;95.50;;;;;;5087387;28;20110;-75
2021/05/20 01:48:36;;;;;;;6.53;3.60;;;11.90;95.50;;;;;;5080580;28;20051;-73
2021/05/20 01:51:10;;;;;;;7.50;3.42;;;11.90;95.90;;;;;;5080330;28;20071;-75
2021/05/20 01:53:38;;;;;;;7.45;4.22;;;11.90;96.20;;;;;;5079586;28;20044;-74
2021/05/20 01:56:06;;;;;;;8.43;4.78;;;12.00;96.10;;;;;;5081331;28;20084;-74
2021/05/20 01:58:34;;;;;;;4.47;2.45;;;12.20;96.80;;;;;;5077078;28;20482;-75
2021/05/20 02:01:01;;;;;;;7.35;2.15;;;11.90;96.80;;;;;;5084655;28;20102;-76
2021/05/20 02:03:28;;;;;;;4.43;1.95;;;11.70;98.40;;;;;;5080581;28;20083;-74
2021/05/20 02:05:58;;;;;;;3.92;1.60;;;11.70;99.80;;;;;;5086592;28;20543;-76
2021/05/20 02:08:25;;;;;;;3.53;1.52;;;11.60;99.90;;;;;;5082209;28;20070;-75
2021/05/20 02:10:52;;;;;;;3.50;1.92;;;11.60;99.90;;;;;;5085797;28;20040;-73
2021/05/20 02:13:19;;;;;;;2.22;1.50;;;11.70;99.90;;;;;;5089158;28;20129;-74
2021/05/20 02:15:46;;;;;;;5.85;1.80;;;11.70;99.90;;;;;;5079504;28;20048;-70
2021/05/20 02:18:13;;;;;;;2.95;1.55;;;11.80;99.90;;;;;;5090775;28;20577;-74
2021/05/20 02:20:40;;;;;;;7.18;1.73;;;11.70;99.90;;;;;;5083342;28;20053;-71
2021/05/20 02:23:07;;;;;;;3.55;1.85;;;11.70;99.90;;;;;;5075647;28;20071;-74
2021/05/20 02:25:34;;;;;;;6.25;3.22;;;11.70;99.90;;;;;;5088258;28;20079;-73
2021/05/20 02:28:01;;;;;;;5.90;3.20;;;11.60;99.90;;;;;;5085167;28;20048;-72
2021/05/20 02:30:28;;;;;;;4.07;1.88;;;11.60;99.90;;;;;;5080329;28;20116;-74
2021/05/20 02:32:55;;;;;;;3.05;2.05;;;11.60;99.90;;;;;;5080808;28;20697;-73
2021/05/20 02:35:22;;;;;;;4.13;1.30;;;11.80;99.90;;;;;;5079902;28;20080;-74
2021/05/20 02:37:49;;;;;;;5.00;1.30;;;11.60;99.90;;;;;;5088562;28;20123;-72
2021/05/20 02:40:17;;;;;;;2.95;1.20;;;11.50;99.90;;;;;;5084677;28;20121;-74
2021/05/20 02:42:45;;;;;;;2.47;1.30;;;11.30;99.90;;;;;;5084338;28;20056;-74
2021/05/20 02:45:20;;;;;;;2.78;1.50;;;11.00;99.90;;;;;;5078180;28;20036;-73
2021/05/20 02:47:49;;;;;;;2.40;1.33;;;11.10;99.90;;;;;;5085199;28;20053;-75
2021/05/20 02:50:18;;;;;;;4.10;1.45;;;11.10;99.90;;;;;;5086916;28;20160;-74
2021/05/20 02:52:45;;;;;;;1.67;1.15;;;11.20;99.90;;;;;;5083040;28;20102;-73
2021/05/20 02:55:12;;;;;;;2.65;1.15;;;11.20;99.90;;;;;;5080684;28;20080;-74
2021/05/20 02:57:42;;;;;;;2.25;1.20;;;11.20;99.90;;;;;;5074165;28;20086;-72
2021/05/20 03:00:10;;;;;;;5.95;1.27;;;11.10;99.90;;;;;;5082288;28;20131;-74
2021/05/20 03:02:37;;;;;;;2.25;1.10;;;11.10;99.90;;;;;;5082850;28;20056;-73
2021/05/20 03:05:06;;;;;;;2.05;0.90;;;11.10;99.90;;;;;;5089065;28;20109;-74
2021/05/20 03:07:34;;;;;;;2.00;1.20;;;11.10;99.90;;;;;;5085053;28;20078;-74
2021/05/20 03:10:06;;;;;;;2.33;0.93;;;11.30;99.90;;;;;;5084960;28;20080;-73
2021/05/20 03:12:33;;;;;;;3.72;1.30;;;11.30;99.90;;;;;;5079534;28;20090;-74
2021/05/20 03:15:01;;;;;;;1.88;1.13;;;11.30;99.90;;;;;;5085288;28;20043;-73
2021/05/20 03:17:28;;;;;;;2.05;1.00;;;11.30;99.90;;;;;;5086858;28;20392;-73
2021/05/20 03:19:55;;;;;;;5.22;1.20;;;11.50;99.90;;;;;;5086420;28;20101;-74
2021/05/20 03:22:22;;;;;;;2.28;1.30;;;11.40;99.90;;;;;;5083471;28;20158;-74
2021/05/20 03:24:52;;;;;;;1.42;1.00;;;11.50;99.90;;;;;;5082704;28;20395;-73
2021/05/20 03:27:19;;;;;;;1.35;0.90;;;11.40;99.90;;;;;;5087702;28;20108;-72
2021/05/20 03:29:46;;;;;;;3.03;1.38;;;11.40;99.90;;;;;;5079905;28;20074;-73
2021/05/20 03:32:13;;;;;;;2.17;1.48;;;11.40;99.90;;;;;;5074046;28;20056;-73
2021/05/20 03:34:40;;;;;;;4.28;1.50;;;11.30;99.90;;;;;;5079287;28;20044;-70
2021/05/20 03:37:08;;;;;;;1.92;1.27;;;11.30;99.90;;;;;;5087317;28;20117;-73
2021/05/20 03:39:34;;;;;;;2.97;1.55;;;11.30;99.90;;;;;;5078874;28;20074;-74
2021/05/20 03:42:02;;;;;;;2.90;1.75;;;11.10;99.90;;;;;;5081723;28;20048;-70
2021/05/20 03:44:30;;;;;;;2.30;1.50;;;11.00;99.90;;;;;;5084649;28;20068;-73
2021/05/20 03:46:58;;;;;;;3.72;1.98;;;11.30;99.90;;;;;;5087652;28;20094;-73
2021/05/20 03:49:25;;;;;;;3.30;1.85;;;11.30;99.90;;;;;;5079856;28;20065;-73
2021/05/20 03:51:52;;;;;;;4.15;2.10;;;11.20;99.90;;;;;;5082978;28;20072;-73
2021/05/20 03:54:19;;;;;;;4.63;2.13;;;11.40;99.90;;;;;;5085826;28;20039;-73
2021/05/20 03:56:46;;;;;;;5.55;2.03;;;11.30;99.90;;;;;;5087818;28;20040;-76
2021/05/20 03:59:12;;;;;;;6.47;3.22;;;11.20;99.90;;;;;;5072458;28;20044;-73
2021/05/20 04:01:40;;;;;;;7.50;3.67;;;11.10;99.90;;;;;;5083497;28;20113;-74
2021/05/20 04:04:07;;;;;;;7.03;3.85;;;11.00;99.90;;;;;;5082563;28;20049;-73
2021/05/20 04:06:35;;;;;;;7.82;4.47;;;11.10;99.90;;;;;;5084358;28;20121;-74
2021/05/20 04:09:02;;;;;;;7.22;4.38;;;11.30;99.90;;;;;;5083044;28;20487;-73
2021/05/20 04:11:29;;;;;;;7.65;4.43;;;11.10;99.90;;;;;;5084618;28;20494;-74
2021/05/20 04:13:56;;;;;;;9.38;4.70;;;11.00;99.90;;;;;;5076717;28;20437;-74
2021/05/20 04:16:26;;;;;;;8.35;4.65;;;11.00;99.90;;;;;;5085857;28;20048;-74
2021/05/20 04:18:53;;;;;;;6.80;4.68;;;11.00;99.90;;;;;;5089047;28;20044;-72
2021/05/20 04:21:20;;;;;;;8.60;5.20;;;11.00;99.90;;;;;;5083521;28;20056;-65
2021/05/20 04:23:48;;;;;;;9.73;5.88;;;11.10;99.90;;;;;;5079269;28;20109;-65
2021/05/20 04:26:19;;;;;;;9.52;5.38;;;11.00;99.90;;;;;;5073489;28;20052;-66
2021/05/20 04:28:46;;;;;;;12.80;6.90;;;11.20;99.90;;;;;;5082796;28;20072;-65
2021/05/20 04:31:14;;;;;;;11.45;7.28;;;11.20;99.90;;;;;;5084834;28;20117;-67
2021/05/20 04:33:41;;;;;;;15.02;8.52;;;11.20;99.90;;;;;;5073052;28;20541;-65
2021/05/20 04:36:08;;;;;;;14.85;10.43;;;11.10;99.90;;;;;;5083068;28;20122;-64
2021/05/20 04:38:35;;;;;;;19.95;11.70;;;11.10;99.90;;;;;;5079567;28;20095;-65
2021/05/20 04:41:03;;;;;;;19.30;12.02;;;11.10;99.90;;;;;;5079361;28;20086;-66
2021/05/20 04:43:29;;;;;;;21.17;11.57;;;11.10;99.90;;;;;;5078240;28;20048;-64
2021/05/20 04:45:56;;;;;;;21.05;10.90;;;11.10;99.90;;;;;;5076832;28;20507;-65
2021/05/20 04:48:23;;;;;;;14.27;9.93;;;11.20;99.90;;;;;;5080480;28;20036;-64
2021/05/20 04:50:50;;;;;;;18.13;9.63;;;11.20;99.90;;;;;;5074892;28;20045;-64
2021/05/20 04:53:17;;;;;;;13.77;9.80;;;11.30;99.90;;;;;;5086747;28;20387;-64
2021/05/20 04:55:44;;;;;;;21.40;9.35;;;11.40;99.90;;;;;;5081108;28;20041;-66
2021/05/20 04:58:11;;;;;;;16.00;8.20;;;11.40;99.90;;;;;;5075101;28;20117;-65
2021/05/20 05:00:38;;;;;;;13.52;6.85;;;11.30;99.90;;;;;;5082527;28;20045;-64
2021/05/20 05:03:05;;;;;;;15.82;7.82;;;11.40;99.90;;;;;;5080300;28;20040;-64
2021/05/20 05:05:31;;;;;;;14.60;6.88;;;11.40;99.90;;;;;;5077395;28;20432;-66
2021/05/20 05:07:58;;;;;;;12.18;6.53;;;11.50;99.90;;;;;;5080818;28;20048;-65
2021/05/20 05:10:25;;;;;;;9.07;6.22;;;11.40;99.90;;;;;;5084479;28;20101;-66
2021/05/20 05:12:53;;;;;;;9.27;5.38;;;11.40;99.90;;;;;;5082977;28;20048;-65
2021/05/20 05:15:19;;;;;;;7.30;4.63;;;11.50;99.90;;;;;;5078806;28;20120;-65
2021/05/20 05:17:46;;;;;;;7.22;4.40;;;11.50;99.90;;;;;;5072419;28;20045;-65
2021/05/20 05:20:13;;;;;;;8.43;4.78;;;11.60;99.90;;;;;;5084644;28;20045;-65
2021/05/20 05:22:40;;;;;;;8.30;4.50;;;11.60;99.90;;;;;;5077433;28;20098;-66
2021/05/20 05:25:07;;;;;;;6.30;4.15;;;11.50;99.90;;;;;;5074538;28;20079;-65
2021/05/20 05:27:34;;;;;;;6.72;4.75;;;11.50;99.90;;;;;;5083184;28;20465;-66
2021/05/20 05:30:02;;;;;;;5.32;3.92;;;11.50;99.90;;;;;;5078596;28;20084;-64
2021/05/20 05:32:28;;;;;;;6.70;4.07;;;11.50;99.90;;;;;;5081920;28;20487;-65
2021/05/20 05:34:55;;;;;;;5.80;3.92;;;11.50;99.90;;;;;;5082807;28;20468;-67
2021/05/20 05:37:22;;;;;;;7.95;4.25;;;11.60;99.90;;;;;;5094318;28;20041;-65
2021/05/20 05:39:49;;;;;;;5.15;3.33;;;11.70;99.90;;;;;;5079132;28;20124;-66
2021/05/20 05:42:16;;;;;;;5.57;4.00;;;11.60;99.90;;;;;;5084085;28;20075;-65
2021/05/20 05:44:43;;;;;;;8.60;4.22;;;11.70;99.90;;;;;;5083137;28;20084;-65
2021/05/20 05:47:10;;;;;;;5.90;4.20;;;11.80;99.90;;;;;;5090487;28;20552;-66
2021/05/20 05:49:43;;;;;;;6.15;4.28;;;11.70;99.90;;;;;;5088651;28;20470;-66
2021/05/20 05:52:17;;;;;;;5.47;4.00;;;11.70;99.90;;;;;;5088151;28;20741;-66
2021/05/20 05:54:43;;;;;;;6.45;3.85;;;11.70;99.90;;;;;;5089878;28;20685;-66
2021/05/20 05:57:10;;;;;;;6.32;4.15;;;11.70;99.90;;;;;;5083396;28;20109;-66
2021/05/20 05:59:37;;;;;;;8.70;4.20;;;11.70;99.90;;;;;;5077319;28;20148;-65
2021/05/20 06:02:04;;;;;;;6.15;3.97;;;11.70;99.90;;;;;;5085219;28;20047;-64
2021/05/20 06:04:31;;;;;;;8.63;4.18;;;11.70;99.90;;;;;;5081428;28;20101;-66
2021/05/20 06:07:00;;;;;;;6.32;3.60;;;11.80;99.90;;;;;;5089431;28;20047;-67
2021/05/20 06:09:29;;;;;;;7.07;3.72;;;11.90;99.90;;;;;;5085927;28;20150;-66
2021/05/20 06:11:57;;;;;;;6.13;4.07;;;11.90;99.90;;;;;;5085519;28;20662;-67
2021/05/20 06:14:24;;;;;;;4.93;3.58;;;12.00;99.90;;;;;;5081619;28;20076;-66
2021/05/20 06:16:50;;;;;;;7.28;3.85;;;12.00;99.90;;;;;;5083372;28;20115;-66
2021/05/20 06:19:17;;;;;;;9.30;4.70;;;12.10;99.90;;;;;;5090322;28;20052;-66
2021/05/20 06:21:44;;;;;;;4.95;3.58;;;12.10;99.90;;;;;;5087092;28;20071;-65
2021/05/20 06:24:11;;;;;;;9.77;4.20;;;12.00;99.90;;;;;;5087738;28;20506;-67
2021/05/20 06:26:38;;;;;;;6.93;3.92;;;11.80;99.90;;;;;;5078876;28;20434;-65
2021/05/20 06:29:05;;;;;;;7.05;3.65;;;11.90;99.90;;;;;;5082451;28;20102;-65
2021/05/20 06:31:32;;;;;;;5.95;4.13;;;12.00;99.90;;;;;;5085893;28;20058;-66
2021/05/20 06:33:59;;;;;;;7.38;3.78;;;12.00;99.90;;;;;;5090341;28;20051;-66
2021/05/20 06:36:26;;;;;;;6.07;4.05;;;12.00;99.90;;;;;;5082755;28;20097;-65
2021/05/20 06:38:53;;;;;;;5.25;3.78;;;12.00;99.90;;;;;;5083029;28;20074;-65
2021/05/20 06:41:22;;;;;;;4.57;3.80;;;12.00;99.90;;;;;;5081330;28;20045;-66
2021/05/20 06:43:49;;;;;;;7.20;4.33;;;12.00;99.90;;;;;;5084477;28;20071;-66
2021/05/20 06:46:16;;;;;;;6.15;4.05;;;12.20;99.90;;;;;;5088116;28;20318;-65
2021/05/20 06:48:43;;;;;;;8.00;4.55;;;12.30;99.90;;;;;;5087491;28;20044;-65
2021/05/20 06:51:09;;;;;;;7.47;4.07;;;12.40;99.90;;;;;;5086603;28;20080;-65
2021/05/20 06:53:38;;;;;;;4.63;3.65;;;12.40;99.90;;;;;;5088167;28;20102;-66
2021/05/20 06:56:08;;;;;;;5.05;3.92;;;12.40;99.90;;;;;;5084009;28;20085;-65
2021/05/20 07:01:21;;;;;;;8.63;6.00;;;12.30;99.90;;;;;;5084110;28;20400;-65
2021/05/20 07:03:47;;;;;;;5.47;3.67;;;12.40;99.90;;;;;;5083549;28;20086;-65
2021/05/20 07:06:14;;;;;;;9.65;3.60;;;12.40;99.90;;;;;;5084612;28;20068;-65
2021/05/20 07:08:41;;;;;;;8.10;4.88;;;12.40;99.90;;;;;;5086580;28;20044;-65
2021/05/20 07:11:08;;;;;;;9.70;4.20;;;12.50;99.90;;;;;;5083323;28;20105;-65
2021/05/20 07:13:35;;;;;;;3.72;2.92;;;12.60;99.90;;;;;;5077463;28;20050;-64
2021/05/20 07:16:03;;;;;;;3.67;3.03;;;12.70;98.30;;;;;;5087021;28;20076;-64
2021/05/20 07:18:30;;;;;;;5.35;3.25;;;12.80;98.00;;;;;;5081987;28;20044;-65
2021/05/20 07:20:57;;;;;;;5.50;3.30;;;12.80;97.70;;;;;;5076361;28;20080;-66
2021/05/20 07:23:24;;;;;;;4.43;3.05;;;13.10;96.90;;;;;;5077609;28;20048;-65
2021/05/20 07:25:51;;;;;;;4.47;3.20;;;13.10;96.80;;;;;;5074918;28;20052;-65
2021/05/20 07:28:19;;;;;;;5.20;3.75;;;12.90;97.00;;;;;;5081153;28;20173;-66
2021/05/20 07:30:46;;;;;;;6.72;3.60;;;12.90;96.90;;;;;;5082787;28;20079;-65
2021/05/20 07:33:13;;;;;;;6.63;3.97;;;12.80;97.90;;;;;;5089837;28;20056;-66
2021/05/20 07:35:40;;;;;;;6.50;3.60;;;12.90;97.60;;;;;;5086451;28;20517;-66
2021/05/20 07:38:07;;;;;;;5.05;3.47;;;13.00;97.60;;;;;;5078975;28;20159;-66
2021/05/20 07:40:34;;;;;;;4.55;3.28;;;12.70;96.90;;;;;;5090633;28;20111;-67
2021/05/20 07:43:01;;;;;;;6.93;3.17;;;12.60;97.20;;;;;;5078999;28;20044;-66
2021/05/20 07:45:28;;;;;;;4.50;3.70;;;12.60;97.50;;;;;;5090245;28;20102;-66
2021/05/20 07:47:55;;;;;;;6.88;3.70;;;12.60;97.60;;;;;;5075806;28;20440;-65
2021/05/20 07:50:22;;;;;;;8.25;3.85;;;12.50;97.50;;;;;;5084804;28;20098;-65
2021/05/20 07:52:49;;;;;;;5.80;3.67;;;12.60;97.80;;;;;;5081581;28;20044;-65
2021/05/20 07:55:16;;;;;;;5.05;3.45;;;12.60;98.10;;;;;;5087563;28;20044;-65
2021/05/20 07:57:44;;;;;;;6.68;3.35;;;12.80;97.80;;;;;;5082043;28;20095;-66
2021/05/20 08:00:15;;;;;;;5.93;3.53;;;12.80;97.80;;;;;;5079877;28;20094;-66
2021/05/20 08:02:53;;;;;;;6.93;2.78;;;12.90;98.10;;;;;;5082421;28;20453;-66
2021/05/20 08:05:29;;;;;;;4.75;3.13;;;13.00;97.30;;;;;;5079395;28;20395;-66
2021/05/20 08:12:49;;;;;;;7.20;4.03;;;12.90;96.20;;;;;;5082986;28;20105;-66
2021/05/20 08:15:16;;;;;;;7.07;3.70;;;12.90;95.30;;;;;;5087640;28;20080;-67
2021/05/20 08:17:43;;;;;;;3.97;3.05;;;12.80;95.40;;;;;;5085674;28;20040;-66
2021/05/20 08:20:10;;;;;;;6.85;3.47;;;13.00;95.30;;;;;;5078101;28;20091;-66
2021/05/20 08:22:38;;;;;;;6.50;4.00;;;13.30;94.60;;;;;;5076603;28;20036;-66
2021/05/20 08:25:06;;;;;;;4.95;4.00;;;13.50;94.10;;;;;;5077618;28;20063;-66
2021/05/20 08:27:33;;;;;;;5.80;4.10;;;13.60;92.80;;;;;;5076254;28;23055;-66
2021/05/20 08:30:00;;;;;;;6.03;3.67;;;13.60;92.60;;;;;;5077174;28;20131;-66
2021/05/20 08:32:28;;;;;;;5.32;2.97;;;13.70;92.50;;;;;;5077304;28;20052;-65
2021/05/20 08:34:54;;;;;;;3.80;3.05;;;13.70;92.20;;;;;;5071951;28;20106;-67
2021/05/20 08:37:21;;;;;;;8.70;2.80;;;13.50;92.10;;;;;;5082047;28;20075;-65
2021/05/20 08:39:49;;;;;;;7.22;3.17;;;13.50;92.20;;;;;;5074576;28;20647;-65
2021/05/20 08:42:15;;;;;;;3.28;2.40;;;13.70;91.70;;;;;;5076708;28;20128;-66
2021/05/20 08:44:45;;;;;;;5.97;2.85;;;14.10;90.70;;;;;;5073848;28;20052;-66
2021/05/20 08:47:12;;;;;;;4.28;2.75;;;14.00;90.50;;;;;;5073745;28;20102;-66
2021/05/20 08:49:39;;;;;;;4.15;2.50;;;13.90;90.10;;;;;;5080589;28;20142;-66
2021/05/20 08:52:06;;;;;;;4.22;2.33;;;13.90;90.00;;;;;;5076089;28;20572;-66
2021/05/20 08:54:46;;;;;;;5.72;2.60;;;14.00;88.50;;;;;;5076458;28;20135;-67
2021/05/20 08:57:13;;;;;;;2.45;2.10;;;14.00;87.60;;;;;;5071743;28;20159;-67
2021/05/20 08:59:40;;;;;;;3.28;2.30;;;14.20;86.60;;;;;;5082538;28;20048;-66
2021/05/20 09:02:20;;;;;;;3.92;2.63;;;14.30;87.60;;;;;;5082282;28;20052;-67
2021/05/20 09:04:55;;;;;;;;;;;14.50;84.30;;;;;;5084318;28;20387;-67
2021/05/20 09:07:30;;;;;;;4.00;2.45;;;14.50;84.80;;;;;;5083340;28;21707;-67
2021/05/20 09:10:29;;;;;;;4.25;2.40;;;15.10;83.40;;;;;;5083220;28;20151;-67
2021/05/20 09:12:59;;;;;;;2.75;2.30;;;15.20;81.10;;;;;;5083689;28;20059;-65
2021/05/20 09:15:42;;;;;;;5.13;2.95;;;15.50;79.40;;;;;;5085348;28;20140;-64
2021/05/20 09:18:13;;;;;;;5.43;2.63;;;15.10;79.60;;;;;;5086876;28;20933;-68
2021/05/20 09:20:47;;;;;;;5.53;2.40;;;15.30;78.90;;;;;;5087329;28;20107;-68
2021/05/20 09:23:21;;;;;;;4.38;2.17;;;15.40;77.60;;;;;;5085952;28;20051;-66
2021/05/20 09:25:50;;;;;;;5.53;2.55;;;15.40;76.10;;;;;;5087211;28;20056;-66
2021/05/20 09:28:31;;;;;;;2.53;2.28;;;15.60;75.90;;;;;;5086147;28;20075;-69
2021/05/20 09:30:58;;;;;;;3.25;2.03;;;15.60;74.30;;;;;;5082951;28;20079;-68
2021/05/20 09:33:27;;;;;;;4.93;2.42;;;15.70;73.20;;;;;;5086431;28;20071;-67
2021/05/20 09:35:54;;;;;;;4.43;2.35;;;15.60;73.10;;;;;;5083290;28;20757;-67
2021/05/20 09:38:25;;;;;;;4.43;2.70;;;15.00;73.60;;;;;;5085358;28;20126;-67
2021/05/20 09:40:55;;;;;;;6.13;2.85;;;15.00;74.60;;;;;;5088006;28;20102;-67
2021/05/20 09:43:33;;;;;;;5.57;2.88;;;15.00;76.20;;;;;;5083751;28;20071;-66
2021/05/20 09:46:03;;;;;;;3.28;2.42;;;15.60;73.80;;;;;;5087035;28;20048;-68
2021/05/20 09:48:35;;;;;;;3.63;3.08;;;15.60;72.70;;;;;;5085802;28;20071;-68
2021/05/20 09:51:03;;;;;;;3.72;2.50;;;15.40;72.50;;;;;;5085653;28;20093;-67
2021/05/20 09:53:46;;;;;;;4.32;2.67;;;15.60;72.10;;;;;;5084424;28;20056;-69
2021/05/20 09:56:13;;;;;;;3.03;2.50;;;15.80;72.20;;;;;;5085423;28;20250;-68
2021/05/20 09:58:53;;;;;;;2.90;2.10;;;15.80;71.30;;;;;;5086105;28;21121;-68
2021/05/20 10:01:20;;;;;;;2.65;2.17;;;15.70;70.40;;;;;;5088267;28;20091;-67
2021/05/20 10:03:55;;;;;;;4.63;2.60;;;15.50;70.20;;;;;;5084456;28;20470;-67
2021/05/20 10:06:43;;;;;;;3.08;2.50;;;15.10;69.60;;;;;;5086631;28;20056;-68
2021/05/20 10:09:12;;;;;;;2.97;2.42;;;15.40;70.80;;;;;;5088310;28;20072;-67
2021/05/20 10:11:40;;;;;;;2.60;2.30;;;15.50;70.80;;;;;;5087195;28;20498;-67
2021/05/20 10:14:07;;;;;;;7.05;2.97;;;15.60;70.30;;;;;;5085877;28;20048;-68
2021/05/20 10:16:38;;;;;;;5.68;3.42;;;15.90;70.00;;;;;;5088453;28;20082;-69
2021/05/20 10:19:06;;;;;;;8.85;4.20;;;16.20;68.90;;;;;;5089942;28;20139;-68
2021/05/20 10:21:34;;;;;;;6.13;3.15;;;16.20;68.60;;;;;;5089406;28;20173;-65
2021/05/20 10:24:01;;;;;;;4.30;2.70;;;16.10;67.80;;;;;;5086292;28;20461;-66
2021/05/20 10:26:29;;;;;;;6.68;3.22;;;16.50;68.40;;;;;;5088836;28;20075;-71
2021/05/20 10:28:56;;;;;;;7.03;3.42;;;16.70;67.00;;;;;;5084157;28;20407;-67
2021/05/20 10:31:25;;;;;;;7.07;4.30;;;16.80;65.20;;;;;;5089879;28;20550;-68
2021/05/20 10:33:52;;;;;;;8.70;4.10;;;16.80;64.60;;;;;;5087665;28;20143;-69
2021/05/20 10:36:23;;;;;;;6.90;3.90;;;16.50;63.80;;;;;;5085516;28;20489;-69
2021/05/20 10:38:50;;;;;;;7.05;3.45;;;16.40;64.00;;;;;;5086016;28;20118;-67
2021/05/20 10:41:25;;;;;;;8.10;4.75;;;16.50;63.20;;;;;;5083502;28;20125;-67
2021/05/20 10:44:12;;;;;;;3.75;2.10;;;16.70;63.50;;;;;;5081203;28;20131;-67
2021/05/20 10:46:57;;;;;;;6.30;4.03;;;16.40;62.40;;;;;;5087386;28;20453;-66
2021/05/20 10:49:46;;;;;;;6.28;3.83;;;16.40;64.50;;;;;;5086595;28;20063;-73
2021/05/20 10:52:39;;;;;;;3.20;2.08;;;16.10;66.60;;;;;;5085794;28;20044;-71
2021/05/20 10:55:09;;;;;;;5.03;2.65;;;16.10;67.80;;;;;;5088170;28;20526;-69
2021/05/20 10:57:54;;;;;;;6.40;2.80;;;15.70;68.70;;;;;;5086986;28;20052;-70
2021/05/20 11:00:44;;;;;;;3.95;1.85;;;15.80;68.80;;;;;;5077165;28;21301;-73
2021/05/20 11:03:11;;;;;;;3.00;1.60;;;16.20;68.00;;;;;;5077742;28;20059;-72
2021/05/20 11:05:41;;;;;;;3.50;2.20;;;16.00;65.60;;;;;;5076667;28;20138;-72
2021/05/20 11:08:37;;;;;;;2.15;1.60;;;16.30;64.90;;;;;;5077076;28;20449;-70
2021/05/20 11:11:06;;;;;;;5.55;1.48;;;16.80;63.60;;;;;;5097071;27;20602;-70
2021/05/20 11:13:40;;;;;;;2.80;1.52;;;16.80;62.60;;;;;;5073131;28;20407;-69
2021/05/20 11:16:13;;;;;;;3.90;1.27;;;16.80;60.20;;;;;;5076707;28;20101;-71
2021/05/20 11:18:41;;;;;;;3.65;1.40;;;16.90;59.50;;;;;;5079181;28;20044;-72
2021/05/20 11:21:08;;;;;;;16.05;4.53;;;17.30;59.50;;;;;;5076821;28;20140;-70
2021/05/20 11:23:37;;;;;;;7.10;3.47;;;17.40;59.80;;;;;;5076892;28;20062;-71
2021/05/20 11:26:18;;;;;;;6.32;2.67;;;17.60;60.40;;;;;;5078420;28;20106;-73
2021/05/20 11:28:54;;;;;;;10.75;4.97;;;17.30;59.70;;;;;;5074178;28;21110;-72
2021/05/20 11:31:23;;;;;;;9.40;4.85;;;17.50;60.30;;;;;;5077692;28;20093;-71
2021/05/20 11:34:24;;;;;;;12.18;5.95;;;17.30;61.80;;;;;;5077601;28;20478;-72
2021/05/20 11:36:52;;;;;;;12.10;4.93;;;17.30;63.50;;;;;;5076641;28;20048;-73
2021/05/20 11:39:20;;;;;;;12.85;6.65;;;17.50;64.40;;;;;;5075634;28;20056;-72
2021/05/20 11:41:49;;;;;;;3.75;2.63;;;17.90;61.40;;;;;;5076671;28;20052;-72
2021/05/20 11:44:18;;;;;;;6.40;2.50;;;18.20;60.50;;;;;;5071482;28;20314;-71
2021/05/20 11:47:03;;;;;;;7.63;3.63;;;17.90;58.80;;;;;;5076760;28;20056;-72
2021/05/20 11:49:31;;;;;;;4.47;2.70;;;17.90;62.00;;;;;;5076625;28;20071;-72
2021/05/20 11:52:10;;;;;;;2.33;1.40;;;17.70;59.90;;;;;;5076601;28;20455;-72
2021/05/20 11:54:44;;;;;;;2.95;1.48;;;17.50;58.50;;;;;;5079897;28;20075;-72
2021/05/20 11:57:22;;;;;;;1.40;1.17;;;18.00;58.30;;;;;;5074896;28;21256;-71
2021/05/20 11:59:53;;;;;;;2.03;1.00;;;18.40;56.90;;;;;;5075687;28;20060;-72
2021/05/20 12:02:22;;;;;;;5.03;1.65;;;18.10;56.20;;;;;;5075528;28;20062;-71
2021/05/20 12:05:08;;;;;;;5.45;1.55;;;18.50;56.00;;;;;;5073735;28;20127;-73
2021/05/20 12:07:38;;;;;;;4.95;2.17;;;17.60;55.40;;;;;;5073881;28;20118;-72
2021/05/20 12:10:13;;;;;;;1.50;1.00;;;17.80;56.80;;;;;;5075886;28;20071;-72
2021/05/20 12:13:06;;;;;;;2.90;1.20;;;17.60;54.80;;;;;;5077073;28;20493;-71
2021/05/20 12:15:35;;;;;;;5.72;1.00;;;17.40;55.90;;;;;;5086334;27;20072;-74
2021/05/20 12:18:02;;;;;;;4.20;1.35;;;17.90;56.50;;;;;;5075220;28;20131;-73
2021/05/20 12:20:30;;;;;;;4.20;1.20;;;18.70;54.70;;;;;;5083217;28;20075;-73
2021/05/20 12:22:58;;;;;;;1.23;0.73;;;19.80;53.90;;;;;;5085487;28;20052;-72
2021/05/20 12:25:26;;;;;;;2.75;0.82;;;21.40;51.30;;;;;;5083161;28;20056;-72
2021/05/20 12:27:55;;;;;;;1.48;1.00;;;24.10;45.90;;;;;;5076486;28;20046;-73
2021/05/20 12:30:24;;;;;;;1.67;0.70;;;24.10;45.60;;;;;;5076472;28;20055;-73
2021/05/20 12:33:03;;;;;;;1.23;0.90;;;23.10;41.50;;;;;;5079528;28;20468;-72
2021/05/20 12:35:37;;;;;;;2.15;0.90;;;23.00;45.70;;;;;;5081076;28;20082;-78
2021/05/20 12:38:12;;;;;;;3.88;0.82;;;27.20;42.50;;;;;;5093537;28;20094;-74
2021/05/20 12:40:44;;;;;;;1.95;0.90;;;28.80;38.80;;;;;;5077993;28;20160;-75
2021/05/20 12:43:11;;;;;;;1.88;1.00;;;27.50;38.40;;;;;;5073731;28;20072;-76
2021/05/20 12:45:40;;;;;;;5.30;1.27;;;29.50;39.10;;;;;;5074953;28;20104;-71
2021/05/20 12:48:30;;;;;;;2.05;0.95;;;26.10;38.90;;;;;;5075941;28;20569;-74
2021/05/20 12:51:03;;;;;;;2.45;0.95;;;22.20;43.00;;;;;;5076734;28;20139;-75
2021/05/20 12:53:36;;;;;;;2.90;0.93;;;20.10;45.30;;;;;;5078695;28;20150;-69
2021/05/20 12:56:26;;;;;;;2.03;0.80;;;19.20;47.50;;;;;;5080746;28;20101;-73
2021/05/20 12:59:05;;;;;;;0.77;0.65;;;19.30;47.30;;;;;;5079429;28;20568;-73
2021/05/20 13:01:37;;;;;;;1.25;0.68;;;18.80;47.40;;;;;;5079219;28;20121;-76
2021/05/20 13:04:11;;;;;;;1.45;0.82;;;18.80;47.10;;;;;;5092365;27;20127;-75
2021/05/20 13:06:39;;;;;;;0.95;0.80;;;19.00;46.80;;;;;;5094973;27;20053;-75